createdAt,value
2023-01-11T00:00:02.089Z,26.80
2023-01-11T00:03:34.480Z,22.77
2023-01-11T00:07:06.939Z,21.58
2023-01-11T00:10:39.023Z,28.60
2023-01-11T00:14:11.123Z,21.93
2023-01-11T00:17:42.871Z,31.42
2023-01-11T00:21:15.005Z,30.95
2023-01-11T00:24:46.780Z,21.63
2023-01-11T00:28:19.110Z,26.90
2023-01-11T00:31:50.839Z,24.85
2023-01-11T00:35:23.060Z,25.63
2023-01-11T00:38:55.556Z,24.33
2023-01-11T00:42:46.401Z,33.50
2023-01-11T00:46:37.740Z,24.77
2023-01-11T00:50:10.598Z,22.67
2023-01-11T00:53:42.364Z,27.73
2023-01-11T00:57:14.599Z,21.80
2023-01-11T01:00:46.354Z,25.75
2023-01-11T01:04:18.687Z,22.13
2023-01-11T01:07:50.748Z,25.35
2023-01-11T01:11:23.337Z,20.83
2023-01-11T01:14:55.090Z,23.50
2023-01-11T01:18:27.094Z,38.67
2023-01-11T01:22:00.075Z,21.60
2023-01-11T01:25:32.205Z,27.73
2023-01-11T01:29:04.268Z,26.98
2023-01-11T01:32:36.392Z,23.73
2023-01-11T01:36:09.030Z,28.70
2023-01-11T01:39:41.047Z,28.30
2023-01-11T01:43:17.679Z,23.17
2023-01-11T01:46:50.042Z,22.75
2023-01-11T01:50:39.555Z,29.90
2023-01-11T01:54:20.508Z,23.65
2023-01-11T01:57:54.346Z,27.63
2023-01-11T02:01:45.968Z,25.33
2023-01-11T02:05:18.495Z,27.90
2023-01-11T02:08:58.199Z,28.00
2023-01-11T02:12:58.315Z,31.20
2023-01-11T02:16:30.565Z,25.90
2023-01-11T02:20:08.355Z,26.10
2023-01-11T02:23:40.420Z,29.40
2023-01-11T02:27:34.083Z,26.97
2023-01-11T02:31:14.990Z,33.10
2023-01-11T02:34:55.493Z,29.55
2023-01-11T02:38:38.487Z,27.33
2023-01-11T02:43:09.003Z,27.58
2023-01-11T02:46:51.267Z,25.77
2023-01-11T02:50:31.925Z,23.67
2023-01-11T02:54:12.568Z,24.13
2023-01-11T02:57:46.463Z,23.55
2023-01-11T03:01:22.557Z,24.42
2023-01-11T03:04:54.581Z,24.97
2023-01-11T03:08:48.275Z,23.83
2023-01-11T03:12:44.537Z,23.85
2023-01-11T03:16:44.872Z,18.77
2023-01-11T03:20:31.702Z,21.42
2023-01-11T03:24:33.294Z,18.48
2023-01-11T03:28:06.104Z,19.63
2023-01-11T03:31:52.895Z,17.47
2023-01-11T03:35:51.165Z,23.13
2023-01-11T03:39:44.973Z,21.40
2023-01-11T03:43:19.392Z,16.93
2023-01-11T03:46:56.590Z,19.58
2023-01-11T03:50:30.283Z,14.88
2023-01-11T03:54:06.694Z,16.50
2023-01-11T03:57:42.709Z,17.25
2023-01-11T04:01:15.219Z,19.48
2023-01-11T04:04:47.393Z,15.10
2023-01-11T04:08:19.830Z,17.70
2023-01-11T04:11:51.668Z,17.77
2023-01-11T04:15:23.794Z,18.50
2023-01-11T04:18:55.572Z,16.60
2023-01-11T04:22:27.601Z,17.35
2023-01-11T04:25:59.292Z,16.00
2023-01-11T04:29:31.420Z,20.60
2023-01-11T04:33:03.353Z,17.13
2023-01-11T04:36:35.586Z,14.75
2023-01-11T04:40:08.101Z,17.77
2023-01-11T04:43:40.217Z,15.17
2023-01-11T04:47:12.078Z,18.20
2023-01-11T04:50:44.217Z,19.17
2023-01-11T04:54:16.378Z,13.37
2023-01-11T04:57:48.511Z,21.15
2023-01-11T05:01:20.451Z,16.85
2023-01-11T05:04:52.581Z,20.20
2023-01-11T05:08:25.898Z,20.65
2023-01-11T05:11:58.037Z,20.85
2023-01-11T05:15:29.756Z,19.48
2023-01-11T05:19:02.547Z,22.70
2023-01-11T05:22:34.281Z,14.30
2023-01-11T05:26:09.414Z,17.08
2023-01-11T05:29:41.123Z,18.10
2023-01-11T05:33:13.271Z,18.17
2023-01-11T05:36:45.600Z,18.77
2023-01-11T05:40:17.887Z,14.23
2023-01-11T05:44:10.243Z,16.33
2023-01-11T05:47:42.611Z,19.35
2023-01-11T05:51:14.776Z,22.25
2023-01-11T05:54:47.338Z,16.50
2023-01-11T05:58:19.271Z,15.65
2023-01-11T06:01:51.371Z,16.77
2023-01-11T06:05:23.255Z,13.87
2023-01-11T06:08:55.406Z,16.42
2023-01-11T06:12:27.264Z,12.30
2023-01-11T06:16:01.504Z,17.83
2023-01-11T06:19:33.374Z,16.58
2023-01-11T06:23:05.441Z,15.90
2023-01-11T06:26:37.201Z,14.15
2023-01-11T06:30:09.947Z,15.13
2023-01-11T06:33:41.779Z,13.95
2023-01-11T06:37:13.765Z,20.30
2023-01-11T06:40:55.546Z,16.53
2023-01-11T06:44:27.893Z,19.70
2023-01-11T06:48:00.433Z,15.93
2023-01-11T06:51:32.244Z,12.97
2023-01-11T06:55:04.853Z,16.08
2023-01-11T06:58:37.820Z,13.18
2023-01-11T07:02:10.590Z,14.85
2023-01-11T07:05:43.939Z,16.47
2023-01-11T07:09:16.128Z,17.25
2023-01-11T07:12:48.007Z,11.60
2023-01-11T07:16:20.806Z,14.17
2023-01-11T07:19:52.538Z,11.23
2023-01-11T07:23:24.518Z,17.05
2023-01-11T07:26:59.555Z,9.93
2023-01-11T07:30:47.843Z,9.55
2023-01-11T07:34:27.047Z,16.08
2023-01-11T07:37:58.800Z,10.52
2023-01-11T07:41:49.299Z,13.30
2023-01-11T07:45:21.227Z,12.55
2023-01-11T07:48:53.463Z,16.33
2023-01-11T07:52:25.152Z,12.20
2023-01-11T07:55:57.411Z,11.32
2023-01-11T07:59:30.619Z,11.20
2023-01-11T08:03:03.047Z,16.13
2023-01-11T08:06:35.005Z,9.88
2023-01-11T08:10:07.867Z,18.23
2023-01-11T08:13:58.486Z,13.48
2023-01-11T08:17:31.800Z,15.90
2023-01-11T08:21:03.688Z,14.43
2023-01-11T08:24:36.008Z,11.55
2023-01-11T08:28:08.132Z,12.33
2023-01-11T08:31:40.456Z,10.40
2023-01-11T08:35:12.938Z,10.25
2023-01-11T08:38:45.315Z,14.57
2023-01-11T08:42:17.708Z,11.32
2023-01-11T08:45:52.591Z,14.20
2023-01-11T08:49:24.516Z,12.88
2023-01-11T08:52:56.635Z,13.40
2023-01-11T08:56:28.371Z,11.65
2023-01-11T09:00:00.753Z,15.05
2023-01-11T09:03:33.552Z,12.57
2023-01-11T09:07:05.513Z,9.77
2023-01-11T09:10:38.015Z,10.45
2023-01-11T09:14:10.038Z,12.27
2023-01-11T09:17:41.696Z,12.88
2023-01-11T09:21:14.143Z,10.25
2023-01-11T09:24:45.858Z,10.82
2023-01-11T09:28:18.652Z,8.33
2023-01-11T09:31:50.439Z,9.93
2023-01-11T09:35:23.028Z,15.98
2023-01-11T09:38:57.460Z,12.23
2023-01-11T09:42:39.723Z,8.88
2023-01-11T09:46:14.262Z,7.38
2023-01-11T09:49:56.080Z,10.23
2023-01-11T09:53:34.920Z,10.05
2023-01-11T09:57:39.852Z,12.88
2023-01-11T10:01:34.081Z,11.88
2023-01-11T10:05:29.812Z,8.43
2023-01-11T10:18:33.346Z,5.97
2023-01-11T10:22:18.051Z,10.93
2023-01-11T10:25:55.056Z,6.82
2023-01-11T10:29:58.415Z,11.93
2023-01-11T10:34:16.223Z,9.52
2023-01-11T10:37:50.938Z,7.75
2023-01-11T10:41:38.607Z,9.20
2023-01-11T10:45:16.701Z,9.07
2023-01-11T10:48:56.370Z,10.50
2023-01-11T10:52:51.656Z,6.95
2023-01-11T10:57:03.036Z,13.50
2023-01-11T11:00:45.137Z,5.15
2023-01-11T11:04:37.245Z,13.68
2023-01-11T11:08:27.236Z,9.30
2023-01-11T11:12:08.404Z,10.90
2023-01-11T11:15:54.867Z,10.55
2023-01-11T11:19:32.819Z,11.63
2023-01-11T11:23:05.071Z,9.73
2023-01-11T11:26:43.318Z,8.88
2023-01-11T11:30:27.189Z,9.38
2023-01-11T11:34:27.337Z,7.57
2023-01-11T11:37:59.995Z,9.35
2023-01-11T11:41:47.659Z,11.30
2023-01-11T11:45:19.898Z,8.47
2023-01-11T11:49:17.214Z,8.23
2023-01-11T11:53:03.764Z,11.27
2023-01-11T11:56:41.923Z,9.90
2023-01-11T12:00:25.950Z,9.97
2023-01-11T12:04:01.719Z,10.25
2023-01-11T12:07:54.327Z,11.88
2023-01-11T12:11:38.865Z,8.50
2023-01-11T12:15:16.542Z,10.52
2023-01-11T12:18:49.023Z,7.80
2023-01-11T12:22:26.586Z,12.03
2023-01-11T12:25:58.674Z,9.95
2023-01-11T12:30:08.657Z,9.98
2023-01-11T12:34:06.993Z,12.40
2023-01-11T12:37:59.187Z,9.23
2023-01-11T12:41:52.770Z,10.10
2023-01-11T12:45:30.288Z,14.50
2023-01-11T12:49:36.955Z,9.00
2023-01-11T12:53:44.218Z,10.70
2023-01-11T12:57:36.834Z,10.02
2023-01-11T13:01:17.944Z,10.23
2023-01-11T13:05:09.925Z,7.38
2023-01-11T13:08:44.451Z,8.02
2023-01-11T13:12:35.290Z,9.88
2023-01-11T13:16:13.445Z,7.30
2023-01-11T13:20:04.013Z,6.57
2023-01-11T13:23:44.523Z,4.80
2023-01-11T13:27:22.597Z,10.43
2023-01-11T13:30:55.700Z,6.63
2023-01-11T13:34:40.588Z,11.13
2023-01-11T13:38:34.556Z,15.57
2023-01-11T13:42:47.039Z,15.18
2023-01-11T13:46:41.578Z,13.27
2023-01-11T13:50:28.357Z,10.70
2023-01-11T13:54:37.916Z,13.07
2023-01-11T13:58:20.302Z,13.40
2023-01-11T14:02:04.977Z,10.60
2023-01-11T14:06:20.540Z,10.53
2023-01-11T14:10:29.709Z,8.18
2023-01-11T14:14:20.816Z,9.60
2023-01-11T14:18:22.063Z,10.87
2023-01-11T14:22:23.059Z,11.00
2023-01-11T14:26:24.817Z,9.40
2023-01-11T14:30:15.215Z,9.52
2023-01-11T14:33:55.825Z,20.83
2023-01-11T14:37:53.012Z,14.50
2023-01-11T14:41:59.247Z,9.23
2023-01-11T14:46:04.242Z,12.03
2023-01-11T14:49:45.187Z,11.30
2023-01-11T14:53:23.867Z,11.52
2023-01-11T14:56:57.431Z,10.00
2023-01-11T15:00:29.604Z,8.23
2023-01-11T15:04:01.751Z,9.00
2023-01-11T15:07:37.966Z,16.15
2023-01-11T15:11:25.091Z,9.40
2023-01-11T15:15:04.952Z,9.82
2023-01-11T15:18:46.800Z,13.85
2023-01-11T15:22:37.411Z,15.30
2023-01-11T15:26:09.782Z,11.02
2023-01-11T15:29:46.220Z,13.85
2023-01-11T15:33:18.368Z,13.00
2023-01-11T15:37:06.515Z,9.43
2023-01-11T15:40:42.089Z,11.40
2023-01-11T15:44:43.926Z,11.38
2023-01-11T15:48:43.498Z,13.20
2023-01-11T15:53:12.582Z,14.60
2023-01-11T15:57:02.127Z,11.23
2023-01-11T16:00:45.983Z,14.67
2023-01-11T16:04:30.826Z,14.93
2023-01-11T16:08:27.215Z,9.77
2023-01-11T16:12:14.172Z,15.27
2023-01-11T16:16:10.541Z,11.13
2023-01-11T16:19:45.824Z,11.73
2023-01-11T16:23:20.949Z,9.85
2023-01-11T16:26:58.889Z,10.30
2023-01-11T16:30:31.655Z,10.02
2023-01-11T16:34:07.082Z,15.23
2023-01-11T16:38:01.401Z,15.77
2023-01-11T16:42:01.783Z,17.77
2023-01-11T16:45:43.800Z,12.80
2023-01-11T16:49:18.060Z,7.57
2023-01-11T16:52:53.583Z,11.38
2023-01-11T16:56:30.623Z,11.20
2023-01-11T17:00:06.900Z,22.45
2023-01-11T17:03:49.301Z,9.10
2023-01-11T17:07:21.016Z,9.05
2023-01-11T17:10:56.150Z,13.13
2023-01-11T17:14:55.792Z,14.27
2023-01-11T17:18:27.779Z,6.65
2023-01-11T17:22:22.565Z,17.50
2023-01-11T17:25:57.041Z,14.10
2023-01-11T17:29:32.809Z,14.93
2023-01-11T17:33:05.493Z,20.95
2023-01-11T17:36:37.436Z,18.70
2023-01-11T17:40:30.482Z,18.03
2023-01-11T17:44:21.598Z,11.00
2023-01-11T17:47:55.244Z,13.88
2023-01-11T17:51:32.007Z,19.90
2023-01-11T17:55:15.279Z,15.60
2023-01-11T17:58:46.986Z,15.98
2023-01-11T18:02:19.185Z,20.97
2023-01-11T18:05:50.942Z,16.00
2023-01-11T18:09:37.437Z,20.05
2023-01-11T18:13:23.889Z,16.60
2023-01-11T18:16:57.982Z,13.27
2023-01-11T18:20:29.714Z,16.13
2023-01-11T18:24:14.469Z,16.33
2023-01-11T18:27:47.131Z,15.40
2023-01-11T18:31:19.569Z,11.60
2023-01-11T18:34:54.264Z,9.07
2023-01-11T18:38:34.819Z,10.93
2023-01-11T18:42:09.665Z,13.50
2023-01-11T18:45:42.251Z,12.85
2023-01-11T18:49:14.128Z,18.67
2023-01-11T18:52:46.409Z,13.73
2023-01-11T18:56:18.172Z,16.05
2023-01-11T18:59:54.658Z,14.35
2023-01-11T19:03:26.471Z,17.20
2023-01-11T19:06:58.503Z,22.20
2023-01-11T19:10:30.389Z,17.92
2023-01-11T19:14:02.412Z,11.50
2023-01-11T19:17:34.171Z,14.05
2023-01-11T19:21:14.126Z,21.48
2023-01-11T19:24:45.854Z,16.58
2023-01-11T19:28:18.193Z,16.33
2023-01-11T19:31:51.963Z,18.42
2023-01-11T19:35:24.047Z,14.80
2023-01-11T19:38:55.964Z,16.67
2023-01-11T19:42:28.377Z,16.38
2023-01-11T19:46:02.041Z,15.23
2023-01-11T19:49:34.338Z,18.33
2023-01-11T19:53:06.753Z,12.73
2023-01-11T19:56:39.363Z,17.38
2023-01-11T20:00:14.200Z,12.00
2023-01-11T20:03:46.778Z,17.37
2023-01-11T20:07:18.571Z,16.15
2023-01-11T20:10:51.388Z,20.17
2023-01-11T20:14:23.260Z,23.13
2023-01-11T20:17:56.250Z,18.27
2023-01-11T20:21:31.592Z,18.98
2023-01-11T20:25:04.739Z,20.27
2023-01-11T20:28:36.876Z,20.15
2023-01-11T20:32:35.027Z,11.80
2023-01-11T20:36:23.779Z,17.02
2023-01-11T20:39:55.590Z,15.13
2023-01-11T20:43:28.028Z,19.58
2023-01-11T20:47:00.373Z,18.02
2023-01-11T20:50:36.288Z,20.43
2023-01-11T20:54:08.479Z,18.48
2023-01-11T20:57:41.291Z,16.35
2023-01-11T21:01:13.672Z,18.83
2023-01-11T21:04:46.487Z,17.95
2023-01-11T21:08:18.409Z,15.07
2023-01-11T21:11:53.937Z,16.25
2023-01-11T21:15:26.175Z,15.33
2023-01-11T21:19:04.966Z,13.98
2023-01-11T21:22:36.842Z,12.02
2023-01-11T21:26:16.558Z,18.90
2023-01-11T21:29:48.964Z,17.42
2023-01-11T21:33:22.350Z,15.82
2023-01-11T21:36:54.441Z,15.60
2023-01-11T21:40:27.733Z,14.05
2023-01-11T21:43:59.887Z,15.02
2023-01-11T21:47:31.909Z,19.05
2023-01-11T21:51:08.323Z,16.27
2023-01-11T21:54:43.457Z,14.48
2023-01-11T21:58:17.246Z,12.30
2023-01-11T22:01:50.259Z,15.43
2023-01-11T22:05:23.726Z,14.48
2023-01-11T22:08:55.528Z,16.15
2023-01-11T22:12:27.614Z,15.77
2023-01-11T22:16:01.795Z,18.08
2023-01-11T22:19:33.980Z,16.50
2023-01-11T22:23:06.049Z,13.57
2023-01-11T22:26:39.010Z,16.23
2023-01-11T22:30:11.676Z,16.58
2023-01-11T22:33:46.587Z,12.07
2023-01-11T22:37:18.729Z,14.20
2023-01-11T22:40:50.819Z,14.82
2023-01-11T22:44:22.612Z,16.50
2023-01-11T22:47:55.018Z,15.77
2023-01-11T22:51:27.354Z,16.20
2023-01-11T22:54:59.563Z,14.43
2023-01-11T22:58:31.415Z,13.82
2023-01-11T23:02:04.144Z,16.33
2023-01-11T23:05:37.274Z,13.77
2023-01-11T23:09:16.057Z,13.05
2023-01-11T23:13:07.096Z,8.90
2023-01-11T23:16:40.058Z,9.75
2023-01-11T23:20:12.304Z,11.27
2023-01-11T23:23:44.358Z,12.10
2023-01-11T23:27:16.268Z,14.15
2023-01-11T23:30:48.304Z,10.32
2023-01-11T23:34:20.027Z,13.02
2023-01-11T23:37:54.566Z,10.77
2023-01-11T23:41:45.473Z,16.02
2023-01-11T23:45:17.500Z,11.05
2023-01-11T23:48:49.926Z,14.40
2023-01-11T23:52:24.628Z,16.02
2023-01-11T23:55:56.828Z,16.27
2023-01-11T23:59:28.795Z,13.37
